»·PEaware :: N25477 L52-L88

N25477 :: L52-L88

FLIGHT INFORMATION

Flight Status: Arrived
Operator: Privately registered:
United States
More flights under this callsign
Pilot: Anonymous 22727 (22727)
Aircraft: CESSNA 152 AEROBAT
(C152)
More flights by this aircraft type
Origin: L52 Oceano Co
United States
Destination: L88 New Cuyama
United States
More flights between these airports :: More routes between these airports
Route:
File this flight plan on PilotEdge
Remarks:
Altitude:
(Current/Filed)
65ft
Speed:
(Current/Filed)
95kts
Departed: 30-Dec-18 10:34 PM
Arrived: 30-Dec-18 11:14 PM
Distance/Time
Traveled:
47nm/0:40
Distance/Time
To Go:
Arrived

Flight Plot

Page will automatically refresh every two minutes.


Map Options




Map Legend


Flown Route
Filed Route
Departure Airport
Arrival Airport
Navaid (VOR, NDB)
Fix

Horizontal Profiles

Position Reports

Time Latitude Longitude Heading Altitude Ground
Speed
30-Dec-18 22:14 35.103497 -120.624069 35 17ft 0kts
30-Dec-18 22:15 35.103497 -120.624069 35 17ft 0kts
30-Dec-18 22:16 35.103497 -120.624069 35 17ft 0kts
30-Dec-18 22:18 35.103497 -120.624069 35 17ft 0kts
30-Dec-18 22:19 35.103499 -120.624068 35 17ft 0kts
30-Dec-18 22:20 35.103501 -120.624066 35 17ft 0kts
30-Dec-18 22:21 35.103503 -120.624065 35 17ft 0kts
30-Dec-18 22:22 35.103505 -120.624063 35 17ft 0kts
30-Dec-18 22:23 35.103507 -120.624061 35 17ft 0kts
30-Dec-18 22:24 35.103509 -120.624059 35 17ft 0kts
30-Dec-18 22:25 35.103377 -120.624252 54 17ft 0kts
30-Dec-18 22:26 35.103114 -120.623883 138 17ft 3kts
30-Dec-18 22:27 35.102226 -120.622597 131 17ft 6kts
30-Dec-18 22:28 35.101377 -120.622854 190 17ft 3kts
30-Dec-18 22:29 35.099485 -120.619681 126 17ft 5kts
30-Dec-18 22:30 35.099383 -120.619349 73 17ft 0kts
30-Dec-18 22:31 35.099385 -120.619338 73 17ft 0kts
30-Dec-18 22:32 35.099386 -120.619335 73 17ft 0kts
30-Dec-18 22:33 35.099628 -120.619126 306 17ft 0kts
30-Dec-18 22:34 35.110793 -120.631211 4 634ft 79kts
30-Dec-18 22:35 35.127262 -120.609799 59 1360ft 97kts
30-Dec-18 22:36 35.135559 -120.576972 110 1754ft 105kts
30-Dec-18 22:36 35.130825 -120.553279 105 2606ft 85kts
30-Dec-18 22:38 35.114392 -120.525867 129 3512ft 87kts
30-Dec-18 22:39 35.100127 -120.503572 128 4276ft 80kts
30-Dec-18 22:40 35.092018 -120.479607 107 4851ft 88kts
30-Dec-18 22:40 35.088901 -120.457388 84 5426ft 73kts
30-Dec-18 22:41 35.080432 -120.431909 94 5907ft 83kts
30-Dec-18 22:43 35.070630 -120.401209 95 6396ft 89kts
30-Dec-18 22:43 35.071701 -120.379165 81 6742ft 79kts
30-Dec-18 22:44 35.071796 -120.372784 83 6777ft 86kts
30-Dec-18 22:45 35.062255 -120.345174 116 7009ft 93kts
30-Dec-18 22:46 35.051704 -120.313701 112 7035ft 102kts
30-Dec-18 22:47 35.041753 -120.280427 96 7008ft 104kts
30-Dec-18 22:48 35.037000 -120.245345 93 6958ft 105kts
30-Dec-18 22:49 35.030652 -120.210425 97 6847ft 105kts
30-Dec-18 22:50 35.024505 -120.175510 95 6715ft 104kts
30-Dec-18 22:51 35.019922 -120.140445 99 6580ft 106kts
30-Dec-18 22:52 35.012660 -120.106547 97 6532ft 103kts
30-Dec-18 22:53 35.006479 -120.072799 96 6511ft 101kts
30-Dec-18 22:54 35.000777 -120.039090 92 6480ft 100kts
30-Dec-18 22:55 34.997496 -120.004536 89 6338ft 105kts
30-Dec-18 22:56 34.992909 -119.967688 98 6064ft 109kts
30-Dec-18 22:57 34.985259 -119.931672 99 5853ft 109kts
30-Dec-18 22:58 34.978166 -119.895533 101 5665ft 108kts
30-Dec-18 22:59 34.971691 -119.859354 91 5450ft 111kts
30-Dec-18 23:00 34.962818 -119.819311 105 4565ft 123kts
30-Dec-18 23:01 34.954752 -119.778838 100 3474ft 121kts
30-Dec-18 23:02 34.948073 -119.741103 94 2901ft 111kts
30-Dec-18 23:03 34.942395 -119.707090 116 3012ft 96kts
30-Dec-18 23:04 34.929757 -119.679897 120 3167ft 70kts
30-Dec-18 23:05 34.928217 -119.662257 2 3080ft 67kts
30-Dec-18 23:06 34.924734 -119.663283 92 2473ft 67kts
30-Dec-18 23:07 34.937173 -119.666393 341 2825ft 57kts
30-Dec-18 23:08 34.944390 -119.668485 349 3151ft 66kts
30-Dec-18 23:09 34.950630 -119.672741 227 3088ft 98kts
30-Dec-18 23:10 34.949090 -119.699826 267 2930ft 81kts
30-Dec-18 23:11 34.936427 -119.695918 119 2958ft 89kts
30-Dec-18 23:12 34.933245 -119.677105 293 2653ft 72kts
30-Dec-18 23:13 34.938446 -119.690696 289 2206ft 0kts
30-Dec-18 23:14 34.939950 -119.694160 358 2206ft 0kts
30-Dec-18 23:15 34.939964 -119.693830 21 2206ft 0kts
30-Dec-18 23:16 34.939964 -119.693830 21 2206ft 0kts
30-Dec-18 23:17 34.939964 -119.693830 21 2206ft 0kts
30-Dec-18 23:18 34.939964 -119.693830 21 2206ft 0kts
30-Dec-18 23:19 34.939964 -119.693830 21 2206ft 0kts
30-Dec-18 23:20 34.939964 -119.693830 21 2206ft 0kts
30-Dec-18 23:21 34.939964 -119.693830 21 2206ft 0kts
30-Dec-18 23:22 34.939964 -119.693830 21 2206ft 0kts
30-Dec-18 23:23 34.939964 -119.693830 21 2206ft 0kts
30-Dec-18 23:24 34.939964 -119.693830 21 2206ft 0kts
30-Dec-18 23:25 34.939964 -119.693830 21 2206ft 0kts
30-Dec-18 23:26 34.939964 -119.693830 21 2206ft 0kts

Navigation Log

Ident Type
Flight plan parsing failed, navigation log unavailable